sensor_id;sensor_type;location;lat;lon;timestamp;pressure;altitude;pressure_sealevel;temperature;humidity
79374;BME280;68844;53.128;17.958;2023-10-09T00:00:34;101869.94;;;1.80;74.82
79374;BME280;68844;53.128;17.958;2023-10-09T00:03:25;101867.49;;;1.78;74.99
79374;BME280;68844;53.128;17.958;2023-10-09T00:05:53;101863.33;;;1.77;74.35
79374;BME280;68844;53.128;17.958;2023-10-09T00:08:20;101856.73;;;1.79;74.56
79374;BME280;68844;53.128;17.958;2023-10-09T00:11:00;101844.23;;;1.80;75.30
79374;BME280;68844;53.128;17.958;2023-10-09T00:13:40;101839.38;;;1.81;75.49
79374;BME280;68844;53.128;17.958;2023-10-09T00:16:22;101832.23;;;1.81;75.09
79374;BME280;68844;53.128;17.958;2023-10-09T00:19:05;101833.81;;;1.80;75.19
79374;BME280;68844;53.128;17.958;2023-10-09T00:21:49;101839.02;;;1.79;74.97
79374;BME280;68844;53.128;17.958;2023-10-09T00:24:16;101835.02;;;1.79;74.60
79374;BME280;68844;53.128;17.958;2023-10-09T00:26:53;101824.23;;;1.83;74.90
79374;BME280;68844;53.128;17.958;2023-10-09T00:29:37;101812.77;;;1.86;75.55
79374;BME280;68844;53.128;17.958;2023-10-09T00:32:11;101810.16;;;1.85;75.47
79374;BME280;68844;53.128;17.958;2023-10-09T00:34:58;101799.23;;;1.85;75.25
79374;BME280;68844;53.128;17.958;2023-10-09T00:37:44;101801.65;;;1.84;75.32
79374;BME280;68844;53.128;17.958;2023-10-09T00:40:11;101812.10;;;1.81;75.15
79374;BME280;68844;53.128;17.958;2023-10-09T00:42:46;101821.13;;;1.79;74.89
79374;BME280;68844;53.128;17.958;2023-10-09T00:45:14;101814.34;;;1.82;75.26
79374;BME280;68844;53.128;17.958;2023-10-09T00:47:52;101816.41;;;1.84;75.83
79374;BME280;68844;53.128;17.958;2023-10-09T00:50:22;101824.23;;;1.84;75.93
79374;BME280;68844;53.128;17.958;2023-10-09T00:52:52;101824.77;;;1.82;75.88
79374;BME280;68844;53.128;17.958;2023-10-09T00:55:27;101816.96;;;1.81;75.63
79374;BME280;68844;53.128;17.958;2023-10-09T00:58:05;101809.48;;;1.82;75.26
79374;BME280;68844;53.128;17.958;2023-10-09T01:00:43;101802.01;;;1.87;75.73
79374;BME280;68844;53.128;17.958;2023-10-09T01:03:10;101801.98;;;1.88;76.31
79374;BME280;68844;53.128;17.958;2023-10-09T01:05:54;101801.66;;;1.86;76.25
79374;BME280;68844;53.128;17.958;2023-10-09T01:08:27;101799.74;;;1.86;76.07
79374;BME280;68844;53.128;17.958;2023-10-09T01:10:58;101797.48;;;1.86;75.82
79374;BME280;68844;53.128;17.958;2023-10-09T01:13:38;101796.45;;;1.84;75.67
79374;BME280;68844;53.128;17.958;2023-10-09T01:16:17;101790.89;;;1.83;75.39
79374;BME280;68844;53.128;17.958;2023-10-09T01:18:44;101785.33;;;1.86;75.56
79374;BME280;68844;53.128;17.958;2023-10-09T01:21:12;101784.78;;;1.89;76.07
79374;BME280;68844;53.128;17.958;2023-10-09T01:23:44;101777.85;;;1.87;75.89
79374;BME280;68844;53.128;17.958;2023-10-09T01:26:30;101776.13;;;1.86;76.03
79374;BME280;68844;53.128;17.958;2023-10-09T01:28:58;101783.95;;;1.86;76.01
79374;BME280;68844;53.128;17.958;2023-10-09T01:31:26;101794.52;;;1.83;75.75
79374;BME280;68844;53.128;17.958;2023-10-09T01:33:53;101801.83;;;1.84;75.30
79374;BME280;68844;53.128;17.958;2023-10-09T01:36:26;101798.53;;;1.87;76.00
79374;BME280;68844;53.128;17.958;2023-10-09T01:38:59;101797.86;;;1.81;76.21
79374;BME280;68844;53.128;17.958;2023-10-09T01:41:25;101796.13;;;1.81;76.07
79374;BME280;68844;53.128;17.958;2023-10-09T01:43:51;101800.81;;;1.80;76.36
79374;BME280;68844;53.128;17.958;2023-10-09T01:46:22;101796.98;;;1.76;75.89
79374;BME280;68844;53.128;17.958;2023-10-09T01:48:48;101796.65;;;1.76;75.83
79374;BME280;68844;53.128;17.958;2023-10-09T01:51:15;101791.09;;;1.79;75.84
79374;BME280;68844;53.128;17.958;2023-10-09T01:53:44;101793.17;;;1.80;76.40
79374;BME280;68844;53.128;17.958;2023-10-09T01:56:11;101793.52;;;1.77;76.44
79374;BME280;68844;53.128;17.958;2023-10-09T01:58:42;101792.66;;;1.76;76.64
79374;BME280;68844;53.128;17.958;2023-10-09T02:01:11;101786.75;;;1.76;76.16
79374;BME280;68844;53.128;17.958;2023-10-09T02:03:37;101786.23;;;1.78;76.14
79374;BME280;68844;53.128;17.958;2023-10-09T02:06:04;101783.29;;;1.79;76.18
79374;BME280;68844;53.128;17.958;2023-10-09T02:08:52;101777.52;;;1.85;76.17
79374;BME280;68844;53.128;17.958;2023-10-09T02:11:20;101778.35;;;1.90;76.66
79374;BME280;68844;53.128;17.958;2023-10-09T02:13:51;101780.27;;;1.90;76.68
79374;BME280;68844;53.128;17.958;2023-10-09T02:16:21;101782.88;;;1.92;76.65
79374;BME280;68844;53.128;17.958;2023-10-09T02:18:55;101774.88;;;1.93;76.22
79374;BME280;68844;53.128;17.958;2023-10-09T02:21:33;101769.30;;;1.95;76.29
79374;BME280;68844;53.128;17.958;2023-10-09T02:24:02;101763.20;;;1.96;75.92
79374;BME280;68844;53.128;17.958;2023-10-09T02:26:33;101765.27;;;2.01;76.04
